الصفحة الرئيسية
METAR-TAF:

METAR-TAF

مطار :

كيرنز, أستراليا

دائرة عرض: 16-53S, خط طول: 145-45E, ارتفاع: 3 متر

مراقبة الطقس الحالي

تاريخ ووقت الإصدار 39 دقيقة قبل الساعة 04:00UTC
ريح 14 عقدة من الشرق/الجنوب الشرقي
درجة الحرارة 29°درجة مئوية
الرطوبة 62%
ضغط 1012 hPa
الرؤية 10 كم أو أكثر

METAR: YBCS 250400Z AUTO 12014KT 9999 // NCD 29/21 Q1012 RF00.0/000.0

زمن: 14:39 (04:39 UTC)

توقعات

تاريخ ووقت الإصدار 2ساعات و 36 دقيقة قبل الساعة 02:03UTC
التوقعات صالحة من25 الساعة 03 UTC إلى 26 الساعة 00 UTC
ريح 14 عقدة من الجنوب الشرقي
الرؤية 10 كم أو أكثر
غيوم متفرقة على ارتفاع 4000 قدم
من 25 الساعة 0900 UTC
ريح 8 عقدة من الجنوب
الرؤية 10 كم أو أكثر
غيوم متفرقة على ارتفاع 2500 قدم
من 25 الساعة 2000 UTC
ريح 8 عقدة من الجنوب
الرؤية 10 كم أو أكثر
غيوم متفرقة على ارتفاع 2000 قدم
زخات من الأمطار الخفيفة,

TAF: YBCS 250203Z 2503/2600 13014KT 9999 SCT040 FM250900 17008KT 9999 SCT025 FM252000 17008KT 9999 -SHRA SCT020

أرصاد الطقس والتوقعات من أكثر من 4000 مطار (تقارير الطقس للمطار METAR والتنبؤ بالطقس بالمطارTAF).

المحطات المتاحة هي النقط الصفراء والحمراء على الخريطة.

حرك المؤشر فوق النقطة لمعرفة اسم المحطة.

ثم انقر لمعرفة أرصاد وتوقعات الطقس.

لتغيير الخارطة: اضغط على الأزرار الخضراء مع رمز الصليب الأسود للتكبير. على الزر الأخضر مع شرطة للتصغير، أو على الأسهم الخضراء للخرائط المجاورة.


METAR-TAF: